createdAt,value
2019-02-26T00:04:36.912Z,101988.39
2019-02-26T00:09:42.485Z,101991.59
2019-02-26T00:14:49.995Z,101993.33
2019-02-26T00:19:54.913Z,101983.83
2019-02-26T00:25:03.833Z,101979.25
2019-02-26T00:30:11.182Z,101961.64
2019-02-26T00:35:18.226Z,101957.45
2019-02-26T00:40:23.224Z,101945.80
2019-02-26T00:45:29.460Z,101960.64
2019-02-26T00:50:37.313Z,101972.91
2019-02-26T00:55:42.199Z,101977.51
2019-02-26T01:00:47.213Z,101992.09
2019-02-26T01:05:52.631Z,101984.81
2019-02-26T01:10:59.244Z,101994.06
2019-02-26T01:16:04.376Z,101975.48
2019-02-26T01:21:09.387Z,101971.39
2019-02-26T01:26:14.745Z,101966.13
2019-02-26T01:31:20.706Z,101961.50
2019-02-26T01:36:26.821Z,101953.70
2019-02-26T01:41:32.241Z,101936.15
2019-02-26T01:46:38.967Z,101933.91
2019-02-26T01:51:46.937Z,101923.17
2019-02-26T01:56:53.429Z,101924.45
2019-02-26T02:01:58.747Z,101909.84
2019-02-26T02:07:05.939Z,101904.98
2019-02-26T02:12:11.042Z,101918.00
2019-02-26T02:17:17.682Z,101927.32
2019-02-26T02:22:22.699Z,101915.72
2019-02-26T02:27:30.350Z,101906.00
2019-02-26T02:32:34.601Z,101900.98
2019-02-26T02:37:39.581Z,101898.43
2019-02-26T02:42:48.493Z,101900.45
2019-02-26T02:47:54.850Z,101899.97
2019-02-26T02:52:59.629Z,101887.39
2019-02-26T02:58:04.758Z,101892.54
2019-02-26T03:03:09.773Z,101894.59
2019-02-26T03:08:16.337Z,101893.22
2019-02-26T03:13:24.870Z,101895.63
2019-02-26T03:18:28.239Z,101918.63
2019-02-26T03:23:33.944Z,101916.33
2019-02-26T03:28:44.435Z,101903.17
2019-02-26T03:33:48.897Z,101899.13
2019-02-26T03:38:56.595Z,101905.51
2019-02-26T03:44:03.262Z,101898.60
2019-02-26T03:49:08.075Z,101908.64
2019-02-26T03:54:13.104Z,101907.52
2019-02-26T03:59:18.154Z,101901.74
2019-02-26T04:04:25.627Z,101902.25
2019-02-26T04:09:29.859Z,101896.27
2019-02-26T04:14:34.895Z,101903.88
2019-02-26T04:19:43.647Z,101916.27
2019-02-26T04:24:46.579Z,101911.27
2019-02-26T04:30:34.035Z,101906.84
2019-02-26T04:35:55.620Z,101900.44
2019-02-26T04:41:25.717Z,101894.67
2019-02-26T04:46:53.941Z,101891.23
2019-02-26T04:51:59.231Z,101887.86
2019-02-26T04:57:04.332Z,101895.77
2019-02-26T05:02:09.437Z,101893.55
2019-02-26T05:07:18.733Z,101877.95
2019-02-26T05:12:25.041Z,101882.73
2019-02-26T05:17:30.246Z,101890.81
2019-02-26T05:22:34.637Z,101889.61
2019-02-26T05:27:42.389Z,101877.83
2019-02-26T05:32:46.352Z,101871.56
2019-02-26T05:37:51.365Z,101872.86
2019-02-26T05:42:58.833Z,101871.73
2019-02-26T05:48:03.536Z,101878.41
2019-02-26T05:53:11.439Z,101880.77
2019-02-26T05:58:16.422Z,101891.72
2019-02-26T06:03:21.877Z,101896.56
2019-02-26T06:08:30.164Z,101896.67
2019-02-26T06:13:35.534Z,101876.94
2019-02-26T06:18:41.987Z,101873.61
2019-02-26T06:23:52.219Z,101873.46
2019-02-26T06:28:57.229Z,101896.47
2019-02-26T06:34:05.638Z,101896.47
2019-02-26T06:39:09.227Z,101901.94
2019-02-26T06:44:14.265Z,101896.44
2019-02-26T06:49:20.686Z,101877.48
2019-02-26T06:54:27.124Z,101878.27
2019-02-26T06:59:34.948Z,101889.33
2019-02-26T07:04:39.629Z,101886.28
2019-02-26T07:09:44.689Z,101876.77
2019-02-26T07:14:51.357Z,101872.76
2019-02-26T07:19:58.459Z,101869.94
2019-02-26T07:25:06.444Z,101873.55
2019-02-26T07:30:11.878Z,101884.97
2019-02-26T07:35:17.339Z,101882.22
2019-02-26T07:40:22.697Z,101884.22
2019-02-26T07:45:29.641Z,101906.00
2019-02-26T07:50:37.644Z,101892.77
2019-02-26T07:55:42.406Z,101888.23
2019-02-26T08:00:49.864Z,101888.25
2019-02-26T08:05:54.183Z,101895.62
2019-02-26T08:10:59.227Z,101879.98
2019-02-26T08:16:05.115Z,101871.38
2019-02-26T08:21:10.275Z,101880.61
2019-02-26T08:26:17.290Z,101874.16
2019-02-26T08:31:23.229Z,101872.64
2019-02-26T08:36:30.116Z,101872.36
2019-02-26T08:41:36.279Z,101873.81
2019-02-26T08:46:42.723Z,101870.71
2019-02-26T08:51:49.235Z,101864.80
2019-02-26T08:56:54.495Z,101860.84
2019-02-26T09:01:59.601Z,101866.53
2019-02-26T09:07:04.644Z,101854.02
2019-02-26T09:12:10.101Z,101855.57
2019-02-26T09:17:18.712Z,101860.23
2019-02-26T09:22:23.608Z,101853.34
2019-02-26T09:27:29.470Z,101884.45
2019-02-26T09:32:37.541Z,101900.08
2019-02-26T09:37:42.795Z,101906.75
2019-02-26T09:42:51.755Z,101919.13
2019-02-26T09:47:57.862Z,101922.94
2019-02-26T09:53:02.593Z,101924.92
2019-02-26T09:58:07.770Z,101929.14
2019-02-26T10:03:15.029Z,101918.95
2019-02-26T10:08:20.367Z,101923.16
2019-02-26T10:13:27.758Z,101916.53
2019-02-26T10:18:33.075Z,101918.95
2019-02-26T10:23:38.415Z,101919.49
2019-02-26T10:28:46.795Z,101923.25
2019-02-26T10:33:50.854Z,101929.13
2019-02-26T10:38:57.857Z,101932.25
2019-02-26T10:44:02.698Z,101936.67
2019-02-26T10:49:07.846Z,101931.42
2019-02-26T10:54:17.664Z,101934.88
2019-02-26T10:59:25.024Z,101930.71
2019-02-26T11:04:35.568Z,101923.10
2019-02-26T11:09:41.056Z,101926.64
2019-02-26T11:14:46.166Z,101921.20
2019-02-26T11:19:50.316Z,101914.52
2019-02-26T11:24:56.132Z,101917.06
2019-02-26T11:30:04.886Z,101898.00
2019-02-26T11:35:11.728Z,101891.78
2019-02-26T11:40:19.756Z,101891.72
2019-02-26T11:45:24.206Z,101881.79
2019-02-26T11:50:29.352Z,101871.20
2019-02-26T11:55:37.396Z,101861.83
2019-02-26T12:00:50.799Z,101865.28
2019-02-26T12:06:00.631Z,101856.14
2019-02-26T12:16:09.070Z,101851.80
2019-02-26T12:21:13.495Z,101837.30
2019-02-26T12:26:19.310Z,101832.70
2019-02-26T12:31:25.381Z,101837.57
2019-02-26T12:36:32.671Z,101837.57
2019-02-26T12:41:41.190Z,101836.45
2019-02-26T12:46:45.828Z,101841.52
2019-02-26T12:51:53.982Z,101833.95
2019-02-26T12:56:57.671Z,101832.34
2019-02-26T13:02:05.564Z,101818.11
2019-02-26T13:07:09.452Z,101819.22
2019-02-26T13:12:17.159Z,101805.83
2019-02-26T13:17:21.013Z,101804.57
2019-02-26T13:22:24.689Z,101789.03
2019-02-26T13:27:28.679Z,101807.19
2019-02-26T13:32:49.702Z,101802.06
2019-02-26T13:37:41.850Z,101805.00
2019-02-26T13:42:59.302Z,101802.76
2019-02-26T13:48:00.828Z,101804.81
2019-02-26T13:52:59.665Z,101795.98
2019-02-26T13:58:11.353Z,101781.46
2019-02-26T14:03:09.920Z,101777.27
2019-02-26T14:08:13.922Z,101762.50
2019-02-26T14:13:17.820Z,101761.56
2019-02-26T14:18:22.752Z,101749.28
2019-02-26T14:23:27.616Z,101736.88
2019-02-26T14:28:31.526Z,101731.65
2019-02-26T14:33:36.554Z,101724.48
2019-02-26T14:38:40.542Z,101697.71
2019-02-26T14:43:44.907Z,101699.50
2019-02-26T14:48:49.146Z,101694.75
2019-02-26T14:53:53.034Z,101686.48
2019-02-26T14:58:56.962Z,101679.53
2019-02-26T15:04:00.912Z,101677.14
2019-02-26T15:09:05.020Z,101684.10
2019-02-26T15:14:13.539Z,101681.70
2019-02-26T15:19:23.944Z,101686.24
2019-02-26T15:24:28.175Z,101693.48
2019-02-26T15:29:32.271Z,101696.67
2019-02-26T15:34:36.535Z,101698.55
2019-02-26T15:39:40.749Z,101699.89
2019-02-26T15:44:45.043Z,101684.13
2019-02-26T15:49:48.966Z,101688.68
2019-02-26T15:54:55.667Z,101692.93
2019-02-26T15:59:58.957Z,101697.75
2019-02-26T16:05:03.392Z,101701.48
2019-02-26T16:10:08.057Z,101698.02
2019-02-26T16:15:12.349Z,101696.35
2019-02-26T16:20:17.116Z,101705.39
2019-02-26T16:25:21.965Z,101713.62
2019-02-26T16:30:26.443Z,101716.27
2019-02-26T16:35:30.840Z,101712.52
2019-02-26T16:40:35.439Z,101714.63
2019-02-26T16:45:39.673Z,101712.46
2019-02-26T16:50:45.572Z,101725.47
2019-02-26T16:55:49.640Z,101731.05
2019-02-26T17:00:54.699Z,101731.58
2019-02-26T17:05:59.021Z,101735.84
2019-02-26T17:11:03.035Z,101734.23
2019-02-26T17:16:07.725Z,101734.73
2019-02-26T17:21:12.005Z,101740.88
2019-02-26T17:26:16.301Z,101742.44
2019-02-26T17:31:20.363Z,101739.44
2019-02-26T17:36:24.533Z,101736.14
2019-02-26T17:41:29.101Z,101744.32
2019-02-26T17:46:33.826Z,101731.72
2019-02-26T17:51:39.273Z,101722.30
2019-02-26T17:56:44.961Z,101724.61
2019-02-26T18:01:50.042Z,101718.42
2019-02-26T18:06:55.193Z,101710.55
2019-02-26T18:12:02.289Z,101703.26
2019-02-26T18:17:07.527Z,101715.70
2019-02-26T18:22:12.607Z,101721.80
2019-02-26T18:27:17.869Z,101719.84
2019-02-26T18:32:23.138Z,101721.44
2019-02-26T18:37:29.620Z,101732.34
2019-02-26T18:42:34.754Z,101731.52
2019-02-26T18:47:42.376Z,101724.02
2019-02-26T18:52:47.681Z,101723.11
2019-02-26T18:57:54.462Z,101729.11
2019-02-26T19:02:59.688Z,101723.69
2019-02-26T19:08:05.826Z,101714.29
2019-02-26T19:13:11.804Z,101716.63
2019-02-26T19:18:17.538Z,101711.95
2019-02-26T19:23:22.785Z,101726.76
2019-02-26T19:28:28.621Z,101727.52
2019-02-26T19:33:33.837Z,101725.08
2019-02-26T19:38:39.776Z,101731.66
2019-02-26T19:44:00.032Z,101727.38
2019-02-26T19:49:05.722Z,101721.17
2019-02-26T19:54:11.616Z,101715.17
2019-02-26T19:59:16.750Z,101720.95
2019-02-26T20:04:22.488Z,101714.98
2019-02-26T20:09:33.562Z,101724.70
2019-02-26T20:14:38.882Z,101724.87
2019-02-26T20:19:44.344Z,101731.69
2019-02-26T20:24:49.668Z,101740.91
2019-02-26T20:29:55.465Z,101732.86
2019-02-26T20:35:00.734Z,101741.98
2019-02-26T20:40:16.001Z,101743.03
2019-02-26T20:45:19.002Z,101737.03
2019-02-26T20:50:24.440Z,101736.95
2019-02-26T20:55:29.832Z,101732.75
2019-02-26T21:00:35.102Z,101730.55
2019-02-26T21:05:41.790Z,101721.37
2019-02-26T21:10:52.156Z,101729.88
2019-02-26T21:15:58.081Z,101724.84
2019-02-26T21:21:03.328Z,101722.44
2019-02-26T21:26:09.456Z,101726.08
2019-02-26T21:31:16.684Z,101718.02
2019-02-26T21:36:27.906Z,101723.80
2019-02-26T21:41:35.849Z,101720.95
2019-02-26T21:46:47.352Z,101716.34
2019-02-26T21:51:55.451Z,101714.47
2019-02-26T21:57:02.366Z,101703.17
2019-02-26T22:02:11.104Z,101709.50
2019-02-26T22:07:16.806Z,101699.41
2019-02-26T22:12:26.475Z,101710.45
2019-02-26T22:17:33.861Z,101701.23
2019-02-26T22:22:40.123Z,101700.73
2019-02-26T22:27:45.269Z,101698.69
2019-02-26T22:32:55.282Z,101694.42
2019-02-26T22:38:00.368Z,101695.93
2019-02-26T22:43:05.399Z,101698.03
2019-02-26T22:48:15.140Z,101702.33
2019-02-26T22:53:21.470Z,101697.45
2019-02-26T22:58:27.758Z,101699.88
2019-02-26T23:03:32.800Z,101694.58
2019-02-26T23:08:37.846Z,101687.78
2019-02-26T23:13:44.152Z,101682.25
2019-02-26T23:18:49.629Z,101681.90
2019-02-26T23:23:56.673Z,101670.81
2019-02-26T23:29:02.094Z,101664.33
2019-02-26T23:34:10.272Z,101664.33
2019-02-26T23:39:16.907Z,101669.50
2019-02-26T23:44:23.661Z,101664.30
2019-02-26T23:49:28.658Z,101664.47
2019-02-26T23:54:33.760Z,101673.80
2019-02-26T23:59:47.827Z,101669.14
